Track Горланов Сергей

Time Latitude Longitude Accuracy (66% radius in meters) Altitude (meters) Speed (km/hour) Bearing (degrees) Battery (%) GPS flag
08:57:41 60.371041 29.556384 6 68.889174026459 0.030276503413916 254.50030517578 90 1 delete
08:57:29 60.371091 29.556353 6 65.07625478133 0.02220262773335 345.11206054688 90 1 delete
08:57:17 60.371082 29.556390 6 64.115401928726 0.0041567338630557 345.11206054688 90 1 delete
08:57:05 60.371036 29.556396 6 63.258145921337 0.015935063362122 345.11206054688 90 1 delete
08:56:44 60.370992 29.556392 6 62.366554551934 0.02448832243681 345.11206054688 90 1 delete
08:56:41 60.370976 29.556397 6 62.242926712405 0.014619586989284 345.11206054688 90 1 delete
08:56:32 60.370932 29.556418 8 62.018695291458 0.022307561710477 345.11206054688 90 1 delete
08:56:26 60.370930 29.556408 8 61.986926593287 0.04113982245326 345.11206054688 90 1 delete
08:56:20 60.370918 29.556425 8 61.99725803347 0.0020175916142762 345.11206054688 90 1 delete
08:56:08 60.370897 29.556455 8 62.163849089825 0.015675762668252 345.11206054688 90 1 delete
08:55:59 60.370884 29.556443 8 63.03190972221 0.047353658825159 345.11206054688 90 1 delete
08:55:47 60.370891 29.556497 8 65.240604922788 0.023432713001966 178.85258483887 90 1 delete
08:55:35 60.370904 29.556454 8 66.6564737189 0.44888040423393 14.784090042114 90 1 delete
08:55:26 60.370890 29.556456 6 68.400136773806 0.062771767377853 178.60632324219 90 1 delete
08:55:23 60.370890 29.556453 8 68.494137785594 0.19690544903278 178.60632324219 90 1 delete
08:55:11 60.370907 29.556469 6 71.212529572644 0.13301384449005 161.81517028809 90 1 delete
08:55:02 60.370913 29.556419 6 72.734004609313 0.037925586104393 182.2320098877 90 1 delete
08:54:56 60.370923 29.556392 8 73.153553093631 0.031752586364746 182.2320098877 90 1 delete
08:54:50 60.370927 29.556353 6 73.846113505883 0.29181817173958 182.2320098877 90 1 delete
08:54:38 60.370944 29.556322 4 76.525146657878 0.024837730452418 130.9955291748 90 1 delete
08:54:26 60.370959 29.556341 6 77.093903664326 0.042651683092117 173.28656005859 90 1 delete
08:54:20 60.370959 29.556315 6 77.130115063079 0.067175209522247 173.28656005859 90 1 delete
08:54:14 60.370963 29.556309 8 77.19909769156 0.20852525532246 173.28656005859 90 1 delete
08:54:05 60.370975 29.556294 4 77.987845725603 0.017243767157197 315.04730224609 90 1 delete
08:53:53 60.370958 29.556223 8 79.023134751916 0.066543750464916 355.77749633789 90 1 delete
08:53:44 60.371001 29.556262 6 79.199260706277 0.052755743265152 355.77749633789 90 1 delete
08:53:41 60.371007 29.556256 6 79.249087038866 0.26934221386909 355.77749633789 90 1 delete
08:53:29 60.371018 29.556279 6 78.38584748753 0.052055459469557 78.065864562988 90 1 delete
08:53:17 60.371039 29.556311 6 77.940389332864 0.019710289314389 78.065864562988 90 1 delete
08:53:08 60.371064 29.556257 6 76.922486981181 0.025442328304052 222.00354003906 90 1 delete
08:52:56 60.371060 29.556213 6 74.745539735934 0.13995116949081 298.54306030273 90 1 delete
08:52:44 60.371057 29.556219 6 72.676146932448 0.061471506953239 310.24130249023 90 1 delete
08:52:32 60.371017 29.556272 6 72.17582419052 0.023446431383491 310.24130249023 90 1 delete
08:52:23 60.371006 29.556291 6 71.830817107191 0.052882749587297 340.22619628906 90 1 delete
08:52:11 60.371017 29.556319 12 71.353500829627 0.25096601247787 164.83975219727 90 1 delete
08:51:59 60.370998 29.556260 6 68.248508548456 0.060955572873354 306.92401123047 90 1 delete
08:51:47 60.371000 29.556233 6 67.689520392921 0.02438242547214 306.92401123047 90 1 delete
08:51:38 60.371012 29.556235 4 67.255851973386 0.025451174005866 306.92401123047 90 1 delete
08:51:35 60.370996 29.556267 6 67.110738543767 0.020732533186674 306.92401123047 90 1 delete
08:51:26 60.370981 29.556305 6 65.414636465441 0.023649854585528 306.92401123047 90 1 delete
08:51:14 60.370987 29.556383 6 64.092072956816 0.10412844270468 23.302974700928 90 1 delete
08:51:02 60.370966 29.556397 4 64.091012497842 0.028067205101252 23.302974700928 90 1 delete
08:50:50 60.371016 29.556374 6 64.234240603764 0.024306928738952 23.302974700928 90 1 delete
08:50:38 60.371032 29.556355 6 64.051768667867 0.014081241562963 23.302974700928 90 1 delete
08:50:29 60.371022 29.556291 6 63.87229267082 0.0086530987173319 23.302974700928 90 1 delete
08:50:17 60.371034 29.556308 6 63.529964734907 0.0028498650062829 23.302974700928 90 1 delete
08:50:11 60.371002 29.556338 4 63.259315499992 0.042123418301344 23.302974700928 90 1 delete
08:50:05 60.370961 29.556381 8 63.096805341169 0.02374136261642 23.302974700928 90 1 delete
08:49:52 60.370981 29.556380 6 63.14005079267 0.011676505208015 23.302974700928 90 1 delete
08:49:40 60.370987 29.556386 12 63.008523501507 0.014925147406757 23.302974700928 90 1 delete